createdAt,value
2023-01-25T00:02:16.558Z,18777.47
2023-01-25T00:04:44.689Z,18763.25
2023-01-25T00:07:12.799Z,18771.38
2023-01-25T00:09:42.298Z,18779.50
2023-01-25T00:12:10.494Z,18791.69
2023-01-25T00:14:38.581Z,18759.19
2023-01-25T00:17:06.919Z,18791.69
2023-01-25T00:19:35.044Z,18777.47
2023-01-25T00:22:03.193Z,18769.34
2023-01-25T00:24:31.328Z,18773.41
2023-01-25T00:27:00.832Z,18789.66
2023-01-25T00:29:28.935Z,18771.38
2023-01-25T00:32:24.816Z,18775.44
2023-01-25T00:34:53.479Z,18814.03
2023-01-25T00:37:29.663Z,18787.63
2023-01-25T00:39:58.025Z,18767.31
2023-01-25T00:42:27.548Z,18791.69
2023-01-25T00:44:55.687Z,18783.56
2023-01-25T00:47:23.820Z,18787.63
2023-01-25T00:49:51.954Z,18797.78
2023-01-25T00:52:20.844Z,18757.16
2023-01-25T00:54:48.985Z,18789.66
2023-01-25T00:57:17.132Z,18785.59
2023-01-25T00:59:47.486Z,18795.75
2023-01-25T01:02:15.635Z,18785.59
2023-01-25T01:04:43.899Z,18773.41
2023-01-25T01:07:14.844Z,18773.41
2023-01-25T01:09:43.272Z,18809.97
2023-01-25T01:12:11.441Z,18779.50
2023-01-25T01:14:39.895Z,18747.00
2023-01-25T01:17:09.498Z,18785.59
2023-01-25T01:19:37.678Z,18753.09
2023-01-25T01:22:05.792Z,18795.75
2023-01-25T01:24:33.925Z,18755.13
2023-01-25T01:27:02.059Z,18767.31
2023-01-25T01:29:30.248Z,18807.94
2023-01-25T01:31:58.433Z,18799.81
2023-01-25T01:34:28.354Z,18763.25
2023-01-25T01:36:56.478Z,18749.03
2023-01-25T01:39:24.608Z,18828.28
2023-01-25T01:41:52.840Z,18757.16
2023-01-25T01:44:43.191Z,18736.84
2023-01-25T01:47:19.218Z,18793.72
2023-01-25T01:49:55.152Z,18759.19
2023-01-25T01:52:30.884Z,18797.78
2023-01-25T01:55:04.684Z,18775.44
2023-01-25T01:57:41.508Z,18777.47
2023-01-25T02:00:17.625Z,18795.75
2023-01-25T02:02:47.278Z,18773.41
2023-01-25T02:05:24.734Z,18773.41
2023-01-25T02:07:55.949Z,18777.47
2023-01-25T02:10:27.960Z,18791.69
2023-01-25T02:12:59.782Z,18805.91
2023-01-25T02:15:34.546Z,18753.09
2023-01-25T02:18:03.416Z,18797.78
2023-01-25T02:20:39.332Z,18722.63
2023-01-25T02:23:20.772Z,18781.53
2023-01-25T02:25:50.541Z,18767.31
2023-01-25T02:28:24.115Z,18757.16
2023-01-25T02:30:52.487Z,18773.41
2023-01-25T02:33:23.399Z,18740.91
2023-01-25T02:35:57.589Z,18775.44
2023-01-25T02:38:26.288Z,18787.63
2023-01-25T02:41:05.186Z,18773.41
2023-01-25T02:43:36.121Z,18785.59
2023-01-25T02:46:15.778Z,18769.34
2023-01-25T02:48:43.925Z,18785.59
2023-01-25T02:51:12.525Z,18791.69
2023-01-25T02:53:40.679Z,18787.63
2023-01-25T02:56:10.321Z,18775.44
2023-01-25T02:58:38.456Z,18797.78
2023-01-25T03:01:06.717Z,18771.38
2023-01-25T03:03:34.827Z,18740.91
2023-01-25T03:06:02.956Z,18759.19
2023-01-25T03:08:31.178Z,18753.09
2023-01-25T03:10:59.898Z,18793.72
2023-01-25T03:13:30.400Z,18763.25
2023-01-25T03:16:02.233Z,18775.44
2023-01-25T03:18:30.454Z,18769.34
2023-01-25T03:21:04.780Z,18773.41
2023-01-25T03:23:33.055Z,18765.28
2023-01-25T03:26:13.955Z,18747.00
2023-01-25T03:28:43.996Z,18781.53
2023-01-25T03:31:15.397Z,18761.22
2023-01-25T03:33:44.189Z,18795.75
2023-01-25T03:36:13.064Z,18775.44
2023-01-25T03:38:41.217Z,18765.28
2023-01-25T03:41:12.835Z,18744.97
2023-01-25T03:43:40.982Z,18769.34
2023-01-25T03:46:10.511Z,18747.00
2023-01-25T03:48:38.601Z,18744.97
2023-01-25T03:51:07.123Z,18818.09
2023-01-25T03:53:35.204Z,18824.22
2023-01-25T03:56:08.202Z,18763.25
2023-01-25T03:58:37.906Z,18753.09
2023-01-25T04:01:08.593Z,18744.97
2023-01-25T04:03:38.091Z,18753.09
2023-01-25T04:06:07.616Z,18765.28
2023-01-25T04:08:36.617Z,18779.50
2023-01-25T04:11:08.733Z,18765.28
2023-01-25T04:13:38.895Z,18761.22
2023-01-25T04:16:08.932Z,18781.53
2023-01-25T04:18:38.684Z,18753.09
2023-01-25T04:21:07.122Z,18753.09
2023-01-25T04:23:35.263Z,18761.22
2023-01-25T04:26:06.203Z,18793.72
2023-01-25T04:28:36.060Z,18769.34
2023-01-25T04:31:06.032Z,18767.31
2023-01-25T04:33:34.769Z,18777.47
2023-01-25T04:36:04.849Z,18757.16
2023-01-25T04:38:33.067Z,18753.09
2023-01-25T04:41:01.378Z,18775.44
2023-01-25T04:43:29.615Z,18765.28
2023-01-25T04:45:57.927Z,18753.09
2023-01-25T04:48:26.103Z,18769.34
2023-01-25T04:50:54.246Z,18791.69
2023-01-25T04:53:23.838Z,18773.41
2023-01-25T04:55:51.991Z,18767.31
2023-01-25T04:58:20.129Z,18753.09
2023-01-25T05:00:48.222Z,18775.44
2023-01-25T05:03:16.397Z,18803.88
2023-01-25T05:05:48.395Z,18769.34
2023-01-25T05:08:16.537Z,18751.06
2023-01-25T05:10:46.347Z,18785.59
2023-01-25T05:13:14.558Z,18787.63
2023-01-25T05:15:42.631Z,18742.94
2023-01-25T05:18:10.798Z,18732.78
2023-01-25T05:20:38.935Z,18738.88
2023-01-25T05:23:07.054Z,18777.47
2023-01-25T05:25:52.766Z,18785.59
2023-01-25T05:28:22.215Z,18736.84
2023-01-25T05:30:50.363Z,18728.72
2023-01-25T05:33:18.495Z,18797.78
2023-01-25T05:35:46.586Z,18781.53
2023-01-25T05:38:14.704Z,18759.19
2023-01-25T05:40:42.799Z,18757.16
2023-01-25T05:43:11.219Z,18747.00
2023-01-25T05:45:41.029Z,18755.13
2023-01-25T05:48:09.153Z,18744.97
2023-01-25T05:50:37.246Z,18753.09
2023-01-25T05:53:05.383Z,18755.13
2023-01-25T05:55:35.889Z,18740.91
2023-01-25T05:58:04.031Z,18755.13
2023-01-25T06:00:32.183Z,18757.16
2023-01-25T06:03:03.623Z,18789.66
2023-01-25T06:05:31.760Z,18765.28
2023-01-25T06:08:00.071Z,18759.19
2023-01-25T06:10:28.183Z,18777.47
2023-01-25T06:12:59.904Z,18761.22
2023-01-25T06:15:28.299Z,18738.88
2023-01-25T06:17:57.021Z,18787.63
2023-01-25T06:20:26.480Z,18744.97
2023-01-25T06:22:55.030Z,18738.88
2023-01-25T06:25:23.366Z,18726.69
2023-01-25T06:27:51.699Z,18759.19
2023-01-25T06:30:20.068Z,18755.13
2023-01-25T06:32:50.226Z,18781.53
2023-01-25T06:35:18.450Z,18793.72
2023-01-25T06:37:48.561Z,18724.66
2023-01-25T06:40:17.191Z,18779.50
2023-01-25T06:42:45.349Z,18734.81
2023-01-25T06:45:13.522Z,18744.97
2023-01-25T06:47:41.763Z,18797.78
2023-01-25T06:50:11.780Z,18761.22
2023-01-25T06:52:40.681Z,18781.53
2023-01-25T06:55:13.914Z,18755.13
2023-01-25T06:57:42.070Z,18767.31
2023-01-25T07:00:12.182Z,18769.34
2023-01-25T07:02:40.541Z,18767.31
2023-01-25T07:05:10.117Z,18763.25
2023-01-25T07:07:38.431Z,18763.25
2023-01-25T07:10:09.425Z,18777.47
2023-01-25T07:12:37.536Z,18791.69
2023-01-25T07:15:07.115Z,18718.56
2023-01-25T07:17:35.681Z,18769.34
2023-01-25T07:20:03.840Z,18765.28
2023-01-25T07:22:31.933Z,18769.34
2023-01-25T07:25:02.107Z,18742.94
2023-01-25T07:27:35.086Z,18769.34
2023-01-25T07:30:03.922Z,18789.66
2023-01-25T07:32:32.027Z,18767.31
2023-01-25T07:35:00.140Z,18753.09
2023-01-25T07:37:28.605Z,18773.41
2023-01-25T07:39:58.175Z,18783.56
2023-01-25T07:42:26.304Z,18767.31
2023-01-25T07:44:55.790Z,18791.69
2023-01-25T07:47:24.017Z,18740.91
2023-01-25T07:49:52.220Z,18777.47
2023-01-25T07:52:20.342Z,18749.03
2023-01-25T07:54:49.941Z,18769.34
2023-01-25T07:57:18.123Z,18718.56
2023-01-25T07:59:46.198Z,18744.97
2023-01-25T08:02:15.648Z,18773.41
2023-01-25T08:04:45.418Z,18765.28
2023-01-25T08:07:14.718Z,18789.66
2023-01-25T08:09:43.293Z,18779.50
2023-01-25T08:12:11.377Z,18805.91
2023-01-25T08:14:39.532Z,18773.41
2023-01-25T08:17:07.703Z,18789.66
2023-01-25T08:19:37.222Z,18773.41
2023-01-25T08:22:07.955Z,18765.28
2023-01-25T08:24:36.251Z,18771.38
2023-01-25T08:27:04.562Z,18783.56
2023-01-25T08:29:32.689Z,18765.28
2023-01-25T08:32:04.253Z,18795.75
2023-01-25T08:34:33.622Z,18785.59
2023-01-25T08:37:03.357Z,18781.53
2023-01-25T08:39:31.472Z,18757.16
2023-01-25T08:42:00.229Z,18753.09
2023-01-25T08:44:28.345Z,18771.38
2023-01-25T08:46:56.451Z,18779.50
2023-01-25T08:49:24.594Z,18761.22
2023-01-25T08:51:52.947Z,18765.28
2023-01-25T08:54:22.474Z,18765.28
2023-01-25T08:56:50.664Z,18771.38
2023-01-25T08:59:18.743Z,18767.31
2023-01-25T09:01:46.951Z,18789.66
2023-01-25T09:04:15.114Z,18801.84
2023-01-25T09:06:43.262Z,18822.19
2023-01-25T09:09:12.780Z,18797.78
2023-01-25T09:11:42.224Z,18793.72
2023-01-25T09:14:10.450Z,18801.84
2023-01-25T09:16:38.572Z,18793.72
2023-01-25T09:19:07.509Z,18799.81
2023-01-25T09:21:37.089Z,18769.34
2023-01-25T09:24:07.746Z,18830.31
2023-01-25T09:26:38.971Z,18805.91
2023-01-25T09:29:10.871Z,18824.22
2023-01-25T09:31:43.538Z,18765.28
2023-01-25T09:34:13.986Z,18803.88
2023-01-25T09:36:42.154Z,18842.50
2023-01-25T09:39:12.238Z,18842.50
2023-01-25T09:42:22.329Z,18818.09
2023-01-25T09:45:20.736Z,18805.91
2023-01-25T09:47:59.122Z,18803.88
2023-01-25T09:51:00.963Z,18789.66
2023-01-25T09:53:36.472Z,18826.25
2023-01-25T09:56:13.249Z,18844.53
2023-01-25T09:58:46.973Z,18807.94
2023-01-25T10:01:38.118Z,18826.25
2023-01-25T10:04:15.787Z,18805.91
2023-01-25T10:06:55.133Z,18828.28
2023-01-25T10:09:40.960Z,18830.31
2023-01-25T10:12:19.650Z,18793.72
2023-01-25T10:14:48.453Z,18824.22
2023-01-25T10:17:32.161Z,18836.41
2023-01-25T10:20:26.703Z,18797.78
2023-01-25T10:23:33.281Z,18814.03
2023-01-25T10:26:05.877Z,18809.97
2023-01-25T10:28:43.640Z,18814.03
2023-01-25T10:31:20.398Z,18818.09
2023-01-25T10:33:50.552Z,18822.19
2023-01-25T10:36:24.441Z,18828.28
2023-01-25T10:38:59.017Z,18840.47
2023-01-25T10:41:37.058Z,18840.47
2023-01-25T10:44:24.560Z,18842.50
2023-01-25T10:47:02.948Z,18838.44
2023-01-25T10:49:42.523Z,18852.66
2023-01-25T10:52:17.694Z,18850.63
2023-01-25T10:54:46.424Z,18828.28
2023-01-25T10:57:20.252Z,18820.16
2023-01-25T10:59:53.753Z,18826.25
2023-01-25T11:02:44.982Z,18838.44
2023-01-25T11:05:34.645Z,18812.00
2023-01-25T11:08:24.499Z,18854.69
2023-01-25T11:10:54.395Z,18854.69
2023-01-25T11:13:26.520Z,18840.47
2023-01-25T11:16:21.539Z,18879.06
2023-01-25T11:18:56.279Z,18834.38
2023-01-25T11:21:28.034Z,18866.88
2023-01-25T11:24:16.592Z,18881.09
2023-01-25T11:26:45.851Z,18885.16
2023-01-25T11:29:20.226Z,18889.22
2023-01-25T11:31:53.736Z,18872.97
2023-01-25T11:34:27.559Z,18889.22
2023-01-25T11:37:28.693Z,18864.84
2023-01-25T11:40:12.411Z,18852.66
2023-01-25T11:42:58.545Z,18875.00
2023-01-25T11:46:04.027Z,18893.28
2023-01-25T11:49:17.911Z,18879.06
2023-01-25T11:51:57.428Z,18895.31
2023-01-25T11:54:53.652Z,18848.59
2023-01-25T11:57:46.187Z,18875.00
2023-01-25T12:00:41.284Z,18875.00
2023-01-25T12:03:59.944Z,18887.19
2023-01-25T12:06:44.998Z,18866.88
2023-01-25T12:09:39.200Z,18866.88
2023-01-25T12:12:22.842Z,18860.78
2023-01-25T12:15:09.316Z,18907.50
2023-01-25T12:18:04.081Z,18887.19
2023-01-25T12:21:07.901Z,18909.53
2023-01-25T12:24:05.219Z,18893.28
2023-01-25T12:26:47.164Z,18881.09
2023-01-25T12:29:27.654Z,18875.00
2023-01-25T12:32:02.829Z,18864.84
2023-01-25T12:34:38.568Z,18858.75
2023-01-25T12:37:18.103Z,18850.63
2023-01-25T12:39:53.361Z,18891.25
2023-01-25T12:42:30.798Z,18885.16
2023-01-25T12:45:11.493Z,18903.44
2023-01-25T12:47:48.509Z,18895.31
2023-01-25T12:50:23.799Z,18885.16
2023-01-25T12:52:59.304Z,18879.06
2023-01-25T12:55:28.680Z,18903.44
2023-01-25T12:58:07.997Z,18895.31
2023-01-25T13:00:50.352Z,18903.44
2023-01-25T13:03:30.804Z,18917.66
2023-01-25T13:06:10.731Z,18868.91
2023-01-25T13:08:54.568Z,18899.38
2023-01-25T13:11:27.943Z,18917.66
2023-01-25T13:14:29.552Z,18917.66
2023-01-25T13:17:31.571Z,18923.78
2023-01-25T13:20:00.994Z,18887.19
2023-01-25T13:22:59.428Z,18905.47
2023-01-25T13:25:28.570Z,18889.22
2023-01-25T13:28:42.813Z,18893.28
2023-01-25T13:31:51.934Z,18877.03
2023-01-25T13:34:58.720Z,18875.00
2023-01-25T13:37:30.025Z,18875.00
2023-01-25T13:40:08.329Z,18895.31
2023-01-25T13:42:40.024Z,18870.94
2023-01-25T13:45:19.869Z,18866.88
2023-01-25T13:48:06.667Z,18901.41
2023-01-25T13:50:39.935Z,18909.53
2023-01-25T13:53:21.836Z,18881.09
2023-01-25T13:55:53.318Z,18879.06
2023-01-25T13:58:27.343Z,18870.94
2023-01-25T14:00:59.113Z,18889.22
2023-01-25T14:03:34.804Z,18911.56
2023-01-25T14:06:04.403Z,18893.28
2023-01-25T14:08:33.843Z,18877.03
2023-01-25T14:11:02.576Z,18905.47
2023-01-25T14:13:30.717Z,18889.22
2023-01-25T14:16:01.850Z,18901.41
2023-01-25T14:18:34.834Z,18895.31
2023-01-25T14:21:17.883Z,18875.00
2023-01-25T14:23:46.296Z,18887.19
2023-01-25T14:26:21.712Z,18895.31
2023-01-25T14:29:01.182Z,18887.19
2023-01-25T14:31:35.685Z,18877.03
2023-01-25T14:34:06.150Z,18866.88
2023-01-25T14:36:35.892Z,18903.44
2023-01-25T14:39:17.219Z,18895.31
2023-01-25T14:42:00.096Z,18879.06
2023-01-25T14:44:31.223Z,18885.16
2023-01-25T14:47:38.497Z,18891.25
2023-01-25T14:50:37.313Z,18903.44
2023-01-25T14:53:16.363Z,18895.31
2023-01-25T14:55:46.502Z,18915.63
2023-01-25T14:58:20.961Z,18921.75
2023-01-25T15:00:54.213Z,18891.25
2023-01-25T15:03:23.037Z,18852.66
2023-01-25T15:05:52.555Z,18883.13
2023-01-25T15:08:31.221Z,18891.25
2023-01-25T15:11:21.058Z,18923.78
2023-01-25T15:13:49.427Z,18907.50
2023-01-25T15:16:17.599Z,18891.25
2023-01-25T15:18:48.426Z,18872.97
2023-01-25T15:21:20.560Z,18875.00
2023-01-25T15:23:50.698Z,18862.81
2023-01-25T15:26:24.421Z,18844.53
2023-01-25T15:28:56.029Z,18895.31
2023-01-25T15:31:28.889Z,18899.38
2023-01-25T15:33:58.257Z,18858.75
2023-01-25T15:36:27.845Z,18887.19
2023-01-25T15:38:56.155Z,18885.16
2023-01-25T15:41:24.651Z,18868.91
2023-01-25T15:43:53.110Z,18897.34
2023-01-25T15:46:26.301Z,18858.75
2023-01-25T15:48:55.085Z,18881.09
2023-01-25T15:51:23.845Z,18883.13
2023-01-25T15:53:53.857Z,18895.31
2023-01-25T15:56:27.361Z,18872.97
2023-01-25T15:58:59.847Z,18854.69
2023-01-25T16:01:30.211Z,18875.00
2023-01-25T16:04:00.609Z,18877.03
2023-01-25T16:06:41.988Z,18889.22
2023-01-25T16:09:21.036Z,18862.81
2023-01-25T16:11:53.100Z,18879.06
2023-01-25T16:14:23.553Z,18887.19
2023-01-25T16:16:53.899Z,18879.06
2023-01-25T16:19:25.044Z,18887.19
2023-01-25T16:21:53.605Z,18891.25
2023-01-25T16:24:23.331Z,18881.09
2023-01-25T16:26:55.400Z,18883.13
2023-01-25T16:29:24.025Z,18913.59
2023-01-25T16:31:53.323Z,18866.88
2023-01-25T16:34:22.142Z,18891.25
2023-01-25T16:36:51.269Z,18891.25
2023-01-25T16:39:23.493Z,18901.41
2023-01-25T16:41:52.395Z,18891.25
2023-01-25T16:44:20.961Z,18909.53
2023-01-25T16:46:50.479Z,18870.94
2023-01-25T16:49:21.412Z,18915.63
2023-01-25T16:51:50.483Z,18848.59
2023-01-25T16:54:20.429Z,18879.06
2023-01-25T16:56:51.568Z,18854.69
2023-01-25T16:59:21.787Z,18852.66
2023-01-25T17:01:50.545Z,18899.38
2023-01-25T17:04:18.939Z,18895.31
2023-01-25T17:06:50.131Z,18893.28
2023-01-25T17:09:25.526Z,18856.72
2023-01-25T17:11:56.599Z,18858.75
2023-01-25T17:14:24.866Z,18881.09
2023-01-25T17:16:55.568Z,18891.25
2023-01-25T17:19:23.993Z,18879.06
2023-01-25T17:21:52.086Z,18820.16
2023-01-25T17:24:22.505Z,18858.75
2023-01-25T17:26:52.002Z,18862.81
2023-01-25T17:29:21.767Z,18870.94
2023-01-25T17:31:50.189Z,18850.63
2023-01-25T17:34:21.741Z,18901.41
2023-01-25T17:36:51.626Z,18901.41
2023-01-25T17:39:22.130Z,18879.06
2023-01-25T17:41:52.771Z,18854.69
2023-01-25T17:44:24.493Z,18860.78
2023-01-25T17:46:53.244Z,18903.44
2023-01-25T17:49:22.481Z,18846.56
2023-01-25T17:51:50.832Z,18877.03
2023-01-25T17:54:19.640Z,18872.97
2023-01-25T17:56:47.814Z,18899.38
2023-01-25T17:59:15.935Z,18879.06
2023-01-25T18:01:45.495Z,18858.75
2023-01-25T18:04:17.329Z,18872.97
2023-01-25T18:06:45.845Z,18897.34
2023-01-25T18:09:13.972Z,18875.00
2023-01-25T18:11:42.144Z,18883.13
2023-01-25T18:14:15.238Z,18862.81
2023-01-25T18:16:45.444Z,18891.25
2023-01-25T18:19:14.034Z,18909.53
2023-01-25T18:21:43.228Z,18870.94
2023-01-25T18:24:28.276Z,18870.94
2023-01-25T18:27:04.885Z,18877.03
2023-01-25T18:29:53.416Z,18891.25
2023-01-25T18:32:23.657Z,18889.22
2023-01-25T18:34:52.201Z,18836.41
2023-01-25T18:37:21.737Z,18901.41
2023-01-25T18:39:55.390Z,18877.03
2023-01-25T18:42:27.211Z,18891.25
2023-01-25T18:44:55.394Z,18889.22
2023-01-25T18:47:25.062Z,18862.81
2023-01-25T18:49:54.289Z,18870.94
2023-01-25T18:52:24.178Z,18868.91
2023-01-25T18:54:52.686Z,18881.09
2023-01-25T18:57:21.313Z,18915.63
2023-01-25T18:59:49.416Z,18891.25
2023-01-25T19:02:19.251Z,18854.69
2023-01-25T19:04:48.705Z,18885.16
2023-01-25T19:07:17.236Z,18856.72
2023-01-25T19:09:45.320Z,18877.03
2023-01-25T19:12:13.424Z,18852.66
2023-01-25T19:14:41.483Z,18850.63
2023-01-25T19:17:09.684Z,18872.97
2023-01-25T19:19:37.847Z,18899.38
2023-01-25T19:22:07.247Z,18887.19
2023-01-25T19:24:35.353Z,18885.16
2023-01-25T19:27:04.650Z,18879.06
2023-01-25T19:29:32.858Z,18854.69
2023-01-25T19:32:00.989Z,18868.91
2023-01-25T19:34:29.123Z,18879.06
2023-01-25T19:36:57.345Z,18885.16
2023-01-25T19:39:26.833Z,18856.72
2023-01-25T19:41:55.060Z,18870.94
2023-01-25T19:44:24.796Z,18858.75
2023-01-25T19:46:52.952Z,18842.50
2023-01-25T19:49:22.260Z,18887.19
2023-01-25T19:51:53.076Z,18854.69
2023-01-25T19:54:22.930Z,18836.41
2023-01-25T19:56:52.794Z,18889.22
2023-01-25T19:59:24.763Z,18862.81
2023-01-25T20:01:53.516Z,18866.88
2023-01-25T20:04:24.487Z,18854.69
2023-01-25T20:06:53.046Z,18822.19
2023-01-25T20:09:24.866Z,18854.69
2023-01-25T20:11:57.011Z,18850.63
2023-01-25T20:14:25.257Z,18862.81
2023-01-25T20:16:53.568Z,18879.06
2023-01-25T20:19:21.743Z,18842.50
2023-01-25T20:21:49.847Z,18842.50
2023-01-25T20:24:17.952Z,18895.31
2023-01-25T20:26:46.199Z,18872.97
2023-01-25T20:29:16.057Z,18860.78
2023-01-25T20:31:46.767Z,18877.03
2023-01-25T20:34:17.891Z,18862.81
2023-01-25T20:36:47.510Z,18866.88
2023-01-25T20:39:17.872Z,18870.94
2023-01-25T20:41:46.998Z,18854.69
2023-01-25T20:44:18.568Z,18830.31
2023-01-25T20:46:47.043Z,18879.06
2023-01-25T20:49:17.783Z,18828.28
2023-01-25T20:51:47.073Z,18887.19
2023-01-25T20:54:15.880Z,18889.22
2023-01-25T20:56:47.621Z,18858.75
2023-01-25T20:59:19.065Z,18891.25
2023-01-25T21:01:47.861Z,18864.84
2023-01-25T21:04:15.948Z,18846.56
2023-01-25T21:06:44.058Z,18858.75
2023-01-25T21:09:13.168Z,18844.53
2023-01-25T21:11:41.203Z,18834.38
2023-01-25T21:14:09.339Z,18868.91
2023-01-25T21:16:38.811Z,18883.13
2023-01-25T21:19:08.310Z,18848.59
2023-01-25T21:21:38.151Z,18870.94
2023-01-25T21:24:07.472Z,18864.84
2023-01-25T21:26:38.206Z,18842.50
2023-01-25T21:29:07.897Z,18875.00
2023-01-25T21:31:42.316Z,18838.44
2023-01-25T21:34:11.562Z,18866.88
2023-01-25T21:36:39.678Z,18883.13
2023-01-25T21:39:08.083Z,18881.09
2023-01-25T21:41:36.888Z,18881.09
2023-01-25T21:44:23.043Z,18858.75
2023-01-25T21:47:19.815Z,18885.16
2023-01-25T21:49:58.206Z,18856.72
2023-01-25T21:52:26.339Z,18860.78
2023-01-25T21:54:54.517Z,18862.81
2023-01-25T21:57:22.736Z,18852.66
2023-01-25T21:59:53.787Z,18862.81
2023-01-25T22:02:23.618Z,18891.25
2023-01-25T22:04:51.762Z,18838.44
2023-01-25T22:07:19.939Z,18836.41
2023-01-25T22:09:49.427Z,18834.38
2023-01-25T22:12:17.636Z,18866.88
2023-01-25T22:14:45.761Z,18879.06
2023-01-25T22:17:13.847Z,18846.56
2023-01-25T22:19:43.363Z,18836.41
2023-01-25T22:22:11.504Z,18826.25
2023-01-25T22:24:39.651Z,18854.69
2023-01-25T22:27:33.525Z,18840.47
2023-01-25T22:30:01.648Z,18832.34
2023-01-25T22:32:29.787Z,18881.09
2023-01-25T22:34:59.251Z,18844.53
2023-01-25T22:37:27.684Z,18824.22
2023-01-25T22:39:58.248Z,18820.16
2023-01-25T22:42:26.481Z,18848.59
2023-01-25T22:44:54.611Z,18816.06
2023-01-25T22:47:22.707Z,18850.63
2023-01-25T22:49:50.820Z,18832.34
2023-01-25T22:52:20.283Z,18834.38
2023-01-25T22:54:50.192Z,18822.19
2023-01-25T22:57:18.477Z,18785.59
2023-01-25T22:59:46.596Z,18846.56
2023-01-25T23:02:14.674Z,18834.38
2023-01-25T23:04:42.856Z,18844.53
2023-01-25T23:07:18.385Z,18826.25
2023-01-25T23:09:51.365Z,18801.84
2023-01-25T23:12:19.960Z,18848.59
2023-01-25T23:14:54.383Z,18885.16
2023-01-25T23:17:42.407Z,18844.53
2023-01-25T23:20:14.359Z,18814.03
2023-01-25T23:22:42.766Z,18812.00
2023-01-25T23:25:13.104Z,18852.66
2023-01-25T23:27:42.117Z,18828.28
2023-01-25T23:30:12.098Z,18834.38
2023-01-25T23:32:49.007Z,18838.44
2023-01-25T23:35:18.790Z,18820.16
2023-01-25T23:37:48.463Z,18830.31
2023-01-25T23:40:18.387Z,18838.44
2023-01-25T23:42:46.613Z,18805.91
2023-01-25T23:45:14.801Z,18838.44
2023-01-25T23:47:42.882Z,18834.38
2023-01-25T23:50:13.149Z,18797.78
2023-01-25T23:52:41.408Z,18824.22
2023-01-25T23:55:11.009Z,18844.53
2023-01-25T23:57:40.659Z,18836.41
